Britsum, Netherlands
Current Conditions -  °F | °C
As of 8:55 AM on Monday 24 Nov 2014 (Local Time) from EHLW Reporting Station
Clear Clear  
Wind Chill: 36°   Ceiling: Unl
Heat Index: 41°   Visibility: 6mi
Dew Point: 37°   Wind: 7mph
Humidity: 87%   Direction: 250°WSW
Pressure: 30.15"   Gusts: NA
Location:  53.25°N, 5.79°E
Report Text: EHLW 240755Z AUTO 25006KT 9999 NCD 05/03 Q1021 BLU
Loading
Personal Weather Stations






























Interactive Weather Map New forecast layout! Learn more

10-Day Weather Forecast

Advertisements
Track Severe Weather on mobile